sensor_id;sensor_type;location;lat;lon;timestamp;temperature;humidity
21353;DHT22;10834;52.268;6.770;2023-07-16T00:01:13;17.90;99.90
21353;DHT22;10834;52.268;6.770;2023-07-16T00:03:59;17.90;99.90
21353;DHT22;10834;52.268;6.770;2023-07-16T00:06:46;17.90;99.90
21353;DHT22;10834;52.268;6.770;2023-07-16T00:09:31;17.90;99.90
21353;DHT22;10834;52.268;6.770;2023-07-16T00:12:18;17.90;99.90
21353;DHT22;10834;52.268;6.770;2023-07-16T00:15:04;17.90;99.90
21353;DHT22;10834;52.268;6.770;2023-07-16T00:17:52;17.90;99.90
21353;DHT22;10834;52.268;6.770;2023-07-16T00:20:38;17.80;99.90
21353;DHT22;10834;52.268;6.770;2023-07-16T00:23:24;17.80;99.90
21353;DHT22;10834;52.268;6.770;2023-07-16T00:26:11;17.80;99.90
21353;DHT22;10834;52.268;6.770;2023-07-16T00:28:58;17.80;99.90
21353;DHT22;10834;52.268;6.770;2023-07-16T00:31:43;17.80;99.90
21353;DHT22;10834;52.268;6.770;2023-07-16T00:34:30;17.70;99.90
21353;DHT22;10834;52.268;6.770;2023-07-16T00:37:16;17.70;99.90
21353;DHT22;10834;52.268;6.770;2023-07-16T00:40:02;17.70;99.90
21353;DHT22;10834;52.268;6.770;2023-07-16T00:42:49;17.80;99.90
21353;DHT22;10834;52.268;6.770;2023-07-16T00:45:36;17.80;99.90
21353;DHT22;10834;52.268;6.770;2023-07-16T00:48:23;17.70;99.90
21353;DHT22;10834;52.268;6.770;2023-07-16T00:51:10;17.70;99.90
21353;DHT22;10834;52.268;6.770;2023-07-16T00:53:56;17.80;99.90
21353;DHT22;10834;52.268;6.770;2023-07-16T00:56:42;17.80;99.90
21353;DHT22;10834;52.268;6.770;2023-07-16T00:59:29;17.70;99.90
21353;DHT22;10834;52.268;6.770;2023-07-16T01:02:15;17.70;99.90
21353;DHT22;10834;52.268;6.770;2023-07-16T01:05:01;17.70;99.90
21353;DHT22;10834;52.268;6.770;2023-07-16T01:07:58;17.60;99.90
21353;DHT22;10834;52.268;6.770;2023-07-16T01:10:45;17.60;99.90
21353;DHT22;10834;52.268;6.770;2023-07-16T01:13:32;17.60;99.90
21353;DHT22;10834;52.268;6.770;2023-07-16T01:16:24;17.50;99.90
21353;DHT22;10834;52.268;6.770;2023-07-16T01:19:10;17.50;99.90
21353;DHT22;10834;52.268;6.770;2023-07-16T01:22:27;17.50;99.90
21353;DHT22;10834;52.268;6.770;2023-07-16T01:25:36;17.50;99.90
21353;DHT22;10834;52.268;6.770;2023-07-16T01:31:35;17.40;99.90
21353;DHT22;10834;52.268;6.770;2023-07-16T01:34:22;17.40;99.90
21353;DHT22;10834;52.268;6.770;2023-07-16T01:37:10;17.40;99.90
21353;DHT22;10834;52.268;6.770;2023-07-16T01:39:56;17.40;99.90
21353;DHT22;10834;52.268;6.770;2023-07-16T01:42:42;17.40;99.90
21353;DHT22;10834;52.268;6.770;2023-07-16T01:45:28;17.40;99.90
21353;DHT22;10834;52.268;6.770;2023-07-16T01:48:31;17.40;99.90
21353;DHT22;10834;52.268;6.770;2023-07-16T01:51:18;17.40;99.90
21353;DHT22;10834;52.268;6.770;2023-07-16T01:54:05;17.40;99.90
21353;DHT22;10834;52.268;6.770;2023-07-16T01:56:51;17.40;99.90
21353;DHT22;10834;52.268;6.770;2023-07-16T01:59:37;17.40;99.90
21353;DHT22;10834;52.268;6.770;2023-07-16T02:02:24;17.40;99.90
21353;DHT22;10834;52.268;6.770;2023-07-16T02:05:10;17.30;99.90
21353;DHT22;10834;52.268;6.770;2023-07-16T02:07:56;17.30;99.90
21353;DHT22;10834;52.268;6.770;2023-07-16T02:10:42;17.30;99.90
21353;DHT22;10834;52.268;6.770;2023-07-16T02:13:28;17.30;99.90
21353;DHT22;10834;52.268;6.770;2023-07-16T02:16:14;17.20;99.90
21353;DHT22;10834;52.268;6.770;2023-07-16T02:19:00;17.20;99.90
21353;DHT22;10834;52.268;6.770;2023-07-16T02:21:46;17.20;99.90
21353;DHT22;10834;52.268;6.770;2023-07-16T02:24:32;17.10;99.90
21353;DHT22;10834;52.268;6.770;2023-07-16T02:27:18;17.10;99.90
21353;DHT22;10834;52.268;6.770;2023-07-16T02:30:05;17.10;99.90
21353;DHT22;10834;52.268;6.770;2023-07-16T02:32:52;17.00;99.90
21353;DHT22;10834;52.268;6.770;2023-07-16T02:35:38;17.00;99.90
21353;DHT22;10834;52.268;6.770;2023-07-16T02:38:24;17.00;99.90
21353;DHT22;10834;52.268;6.770;2023-07-16T02:41:10;17.00;99.90
21353;DHT22;10834;52.268;6.770;2023-07-16T02:44:05;16.90;99.90
21353;DHT22;10834;52.268;6.770;2023-07-16T02:46:51;16.90;99.90
21353;DHT22;10834;52.268;6.770;2023-07-16T02:49:38;16.90;99.90
21353;DHT22;10834;52.268;6.770;2023-07-16T02:52:24;16.90;99.90
21353;DHT22;10834;52.268;6.770;2023-07-16T02:55:10;16.80;99.90
21353;DHT22;10834;52.268;6.770;2023-07-16T02:57:56;16.80;99.90
21353;DHT22;10834;52.268;6.770;2023-07-16T03:00:42;16.80;99.90
21353;DHT22;10834;52.268;6.770;2023-07-16T03:03:28;16.70;99.90
21353;DHT22;10834;52.268;6.770;2023-07-16T03:06:14;16.60;99.90
21353;DHT22;10834;52.268;6.770;2023-07-16T03:09:00;16.60;99.90
21353;DHT22;10834;52.268;6.770;2023-07-16T03:11:47;16.60;99.90
21353;DHT22;10834;52.268;6.770;2023-07-16T03:14:33;16.60;99.90
21353;DHT22;10834;52.268;6.770;2023-07-16T03:17:20;16.60;99.90
21353;DHT22;10834;52.268;6.770;2023-07-16T03:20:07;16.50;99.90
21353;DHT22;10834;52.268;6.770;2023-07-16T03:22:53;16.60;99.90
21353;DHT22;10834;52.268;6.770;2023-07-16T03:25:39;16.50;99.90
21353;DHT22;10834;52.268;6.770;2023-07-16T03:28:25;16.50;99.90
21353;DHT22;10834;52.268;6.770;2023-07-16T03:31:11;16.50;99.90
21353;DHT22;10834;52.268;6.770;2023-07-16T03:33:57;16.50;99.90
21353;DHT22;10834;52.268;6.770;2023-07-16T03:36:43;16.50;99.90
21353;DHT22;10834;52.268;6.770;2023-07-16T03:39:29;16.50;99.90
21353;DHT22;10834;52.268;6.770;2023-07-16T03:42:15;16.50;99.90
21353;DHT22;10834;52.268;6.770;2023-07-16T03:45:02;16.40;99.90
21353;DHT22;10834;52.268;6.770;2023-07-16T03:47:48;16.40;99.90
21353;DHT22;10834;52.268;6.770;2023-07-16T03:50:34;16.40;99.90
21353;DHT22;10834;52.268;6.770;2023-07-16T03:53:20;16.40;99.90
21353;DHT22;10834;52.268;6.770;2023-07-16T03:56:06;16.50;99.90
21353;DHT22;10834;52.268;6.770;2023-07-16T03:58:52;16.40;99.90
21353;DHT22;10834;52.268;6.770;2023-07-16T04:01:39;16.50;99.90
21353;DHT22;10834;52.268;6.770;2023-07-16T04:04:25;16.40;99.90
21353;DHT22;10834;52.268;6.770;2023-07-16T04:07:11;16.50;99.90
21353;DHT22;10834;52.268;6.770;2023-07-16T04:09:57;16.50;99.90
21353;DHT22;10834;52.268;6.770;2023-07-16T04:12:43;16.50;99.90
21353;DHT22;10834;52.268;6.770;2023-07-16T04:15:29;16.50;99.90
21353;DHT22;10834;52.268;6.770;2023-07-16T04:18:15;16.50;99.90
21353;DHT22;10834;52.268;6.770;2023-07-16T04:21:01;16.50;99.90
21353;DHT22;10834;52.268;6.770;2023-07-16T04:23:47;16.50;99.90
21353;DHT22;10834;52.268;6.770;2023-07-16T04:26:33;16.60;99.90
21353;DHT22;10834;52.268;6.770;2023-07-16T04:29:19;16.60;99.90
21353;DHT22;10834;52.268;6.770;2023-07-16T04:32:05;16.60;99.90
21353;DHT22;10834;52.268;6.770;2023-07-16T04:34:52;16.60;99.90
21353;DHT22;10834;52.268;6.770;2023-07-16T04:37:38;16.60;99.90
21353;DHT22;10834;52.268;6.770;2023-07-16T04:40:24;16.60;99.90
21353;DHT22;10834;52.268;6.770;2023-07-16T04:43:10;16.60;99.90
21353;DHT22;10834;52.268;6.770;2023-07-16T04:45:56;16.60;99.90
21353;DHT22;10834;52.268;6.770;2023-07-16T04:48:42;16.70;99.90
21353;DHT22;10834;52.268;6.770;2023-07-16T04:51:28;16.70;99.90
21353;DHT22;10834;52.268;6.770;2023-07-16T04:54:14;16.70;99.90
21353;DHT22;10834;52.268;6.770;2023-07-16T04:57:00;16.70;99.90
21353;DHT22;10834;52.268;6.770;2023-07-16T04:59:46;16.80;99.90
21353;DHT22;10834;52.268;6.770;2023-07-16T05:02:32;16.80;99.90
21353;DHT22;10834;52.268;6.770;2023-07-16T05:05:19;16.80;99.90
21353;DHT22;10834;52.268;6.770;2023-07-16T05:08:05;16.80;99.90
21353;DHT22;10834;52.268;6.770;2023-07-16T05:10:51;16.90;99.90
21353;DHT22;10834;52.268;6.770;2023-07-16T05:13:37;16.90;99.90
21353;DHT22;10834;52.268;6.770;2023-07-16T05:16:23;17.00;99.90
21353;DHT22;10834;52.268;6.770;2023-07-16T05:19:09;17.00;99.90
21353;DHT22;10834;52.268;6.770;2023-07-16T05:21:55;17.00;99.90
21353;DHT22;10834;52.268;6.770;2023-07-16T05:24:41;17.10;99.90
21353;DHT22;10834;52.268;6.770;2023-07-16T05:27:28;17.10;99.90
21353;DHT22;10834;52.268;6.770;2023-07-16T05:30:14;17.10;99.90
21353;DHT22;10834;52.268;6.770;2023-07-16T05:33:00;17.10;99.90
21353;DHT22;10834;52.268;6.770;2023-07-16T05:35:48;17.20;99.90
21353;DHT22;10834;52.268;6.770;2023-07-16T05:38:36;17.20;99.90
21353;DHT22;10834;52.268;6.770;2023-07-16T05:41:22;17.20;99.90
21353;DHT22;10834;52.268;6.770;2023-07-16T05:44:08;17.20;99.90
21353;DHT22;10834;52.268;6.770;2023-07-16T05:46:54;17.20;99.90
21353;DHT22;10834;52.268;6.770;2023-07-16T05:49:40;17.20;99.90
21353;DHT22;10834;52.268;6.770;2023-07-16T05:52:26;17.30;99.90
21353;DHT22;10834;52.268;6.770;2023-07-16T05:55:13;17.30;99.90
21353;DHT22;10834;52.268;6.770;2023-07-16T05:57:59;17.40;99.90
21353;DHT22;10834;52.268;6.770;2023-07-16T06:00:44;17.40;99.90
21353;DHT22;10834;52.268;6.770;2023-07-16T06:03:30;17.50;99.90
21353;DHT22;10834;52.268;6.770;2023-07-16T06:06:17;17.50;99.90
21353;DHT22;10834;52.268;6.770;2023-07-16T06:09:03;17.50;99.90
21353;DHT22;10834;52.268;6.770;2023-07-16T06:11:49;17.70;99.90
21353;DHT22;10834;52.268;6.770;2023-07-16T06:14:35;17.90;99.90
21353;DHT22;10834;52.268;6.770;2023-07-16T06:17:21;18.20;99.90
21353;DHT22;10834;52.268;6.770;2023-07-16T06:20:08;18.60;99.90
21353;DHT22;10834;52.268;6.770;2023-07-16T06:22:54;19.00;99.90
21353;DHT22;10834;52.268;6.770;2023-07-16T06:25:40;19.40;99.90
21353;DHT22;10834;52.268;6.770;2023-07-16T06:28:30;20.40;99.90
21353;DHT22;10834;52.268;6.770;2023-07-16T06:31:17;21.20;99.90
21353;DHT22;10834;52.268;6.770;2023-07-16T06:34:03;21.90;99.90
21353;DHT22;10834;52.268;6.770;2023-07-16T06:36:49;23.10;99.90
21353;DHT22;10834;52.268;6.770;2023-07-16T06:39:35;23.70;98.40
21353;DHT22;10834;52.268;6.770;2023-07-16T06:42:21;23.70;95.30
21353;DHT22;10834;52.268;6.770;2023-07-16T06:45:08;24.40;91.20
21353;DHT22;10834;52.268;6.770;2023-07-16T06:47:54;25.00;84.50
21353;DHT22;10834;52.268;6.770;2023-07-16T06:50:40;25.10;79.20
21353;DHT22;10834;52.268;6.770;2023-07-16T06:53:26;24.90;77.50
21353;DHT22;10834;52.268;6.770;2023-07-16T06:56:12;24.40;79.00
21353;DHT22;10834;52.268;6.770;2023-07-16T06:58:58;23.40;82.50
21353;DHT22;10834;52.268;6.770;2023-07-16T07:01:44;22.90;87.30
21353;DHT22;10834;52.268;6.770;2023-07-16T07:04:30;22.60;93.20
21353;DHT22;10834;52.268;6.770;2023-07-16T07:07:17;22.40;95.40
21353;DHT22;10834;52.268;6.770;2023-07-16T07:10:03;22.30;94.30
21353;DHT22;10834;52.268;6.770;2023-07-16T07:12:50;22.20;95.40
21353;DHT22;10834;52.268;6.770;2023-07-16T07:15:36;22.30;95.30
21353;DHT22;10834;52.268;6.770;2023-07-16T07:18:22;22.70;95.50
21353;DHT22;10834;52.268;6.770;2023-07-16T07:21:08;23.60;94.30
21353;DHT22;10834;52.268;6.770;2023-07-16T07:23:54;25.00;87.30
21353;DHT22;10834;52.268;6.770;2023-07-16T07:26:40;25.80;81.80
21353;DHT22;10834;52.268;6.770;2023-07-16T07:29:26;26.20;74.60
21353;DHT22;10834;52.268;6.770;2023-07-16T07:32:12;26.50;71.40
21353;DHT22;10834;52.268;6.770;2023-07-16T07:34:58;27.10;66.60
21353;DHT22;10834;52.268;6.770;2023-07-16T07:37:44;28.60;62.30
21353;DHT22;10834;52.268;6.770;2023-07-16T07:40:30;28.80;59.00
21353;DHT22;10834;52.268;6.770;2023-07-16T07:43:16;28.30;57.90
21353;DHT22;10834;52.268;6.770;2023-07-16T07:46:02;29.00;56.60
21353;DHT22;10834;52.268;6.770;2023-07-16T07:48:48;29.90;54.80
21353;DHT22;10834;52.268;6.770;2023-07-16T07:51:35;29.20;53.60
21353;DHT22;10834;52.268;6.770;2023-07-16T07:54:21;29.70;53.80
21353;DHT22;10834;52.268;6.770;2023-07-16T07:57:07;29.60;53.40
21353;DHT22;10834;52.268;6.770;2023-07-16T07:59:53;29.80;52.60
21353;DHT22;10834;52.268;6.770;2023-07-16T08:02:43;31.50;50.30
21353;DHT22;10834;52.268;6.770;2023-07-16T08:05:29;31.70;47.20
21353;DHT22;10834;52.268;6.770;2023-07-16T08:08:15;31.10;47.90
21353;DHT22;10834;52.268;6.770;2023-07-16T08:11:01;31.80;47.50
21353;DHT22;10834;52.268;6.770;2023-07-16T08:13:47;31.90;47.70
21353;DHT22;10834;52.268;6.770;2023-07-16T08:16:35;32.50;46.00
21353;DHT22;10834;52.268;6.770;2023-07-16T08:19:21;33.10;44.40
21353;DHT22;10834;52.268;6.770;2023-07-16T08:22:07;31.80;45.80
21353;DHT22;10834;52.268;6.770;2023-07-16T08:24:53;31.40;47.00
21353;DHT22;10834;52.268;6.770;2023-07-16T08:27:39;31.90;46.60
21353;DHT22;10834;52.268;6.770;2023-07-16T08:30:25;32.30;45.90
21353;DHT22;10834;52.268;6.770;2023-07-16T08:33:11;31.20;45.80
21353;DHT22;10834;52.268;6.770;2023-07-16T08:35:58;30.00;47.20
21353;DHT22;10834;52.268;6.770;2023-07-16T08:38:44;29.00;49.30
21353;DHT22;10834;52.268;6.770;2023-07-16T08:41:30;27.70;49.90
21353;DHT22;10834;52.268;6.770;2023-07-16T08:44:17;27.20;51.80
21353;DHT22;10834;52.268;6.770;2023-07-16T08:47:03;27.00;54.00
21353;DHT22;10834;52.268;6.770;2023-07-16T08:49:56;27.50;54.10
21353;DHT22;10834;52.268;6.770;2023-07-16T08:52:43;27.70;53.50
21353;DHT22;10834;52.268;6.770;2023-07-16T08:55:30;27.60;53.00
21353;DHT22;10834;52.268;6.770;2023-07-16T08:58:16;28.90;53.00
21353;DHT22;10834;52.268;6.770;2023-07-16T09:01:02;28.40;52.10
21353;DHT22;10834;52.268;6.770;2023-07-16T09:03:48;28.00;53.30
21353;DHT22;10834;52.268;6.770;2023-07-16T09:06:35;27.30;54.40
21353;DHT22;10834;52.268;6.770;2023-07-16T09:09:24;26.50;54.70
21353;DHT22;10834;52.268;6.770;2023-07-16T09:12:13;25.90;56.50
21353;DHT22;10834;52.268;6.770;2023-07-16T09:14:59;25.30;57.20
21353;DHT22;10834;52.268;6.770;2023-07-16T09:17:49;24.70;57.50
21353;DHT22;10834;52.268;6.770;2023-07-16T09:20:35;24.60;59.30
21353;DHT22;10834;52.268;6.770;2023-07-16T09:23:25;24.50;60.30
21353;DHT22;10834;52.268;6.770;2023-07-16T09:26:12;24.60;61.60
21353;DHT22;10834;52.268;6.770;2023-07-16T09:28:58;26.20;59.60
21353;DHT22;10834;52.268;6.770;2023-07-16T09:31:57;26.80;58.60
21353;DHT22;10834;52.268;6.770;2023-07-16T09:34:43;27.00;55.80
21353;DHT22;10834;52.268;6.770;2023-07-16T09:37:29;26.20;56.40
21353;DHT22;10834;52.268;6.770;2023-07-16T09:40:15;25.60;58.10
21353;DHT22;10834;52.268;6.770;2023-07-16T09:43:02;25.00;59.70
21353;DHT22;10834;52.268;6.770;2023-07-16T09:45:48;24.50;60.50
21353;DHT22;10834;52.268;6.770;2023-07-16T09:48:34;24.40;64.10
21353;DHT22;10834;52.268;6.770;2023-07-16T09:51:21;25.80;60.70
21353;DHT22;10834;52.268;6.770;2023-07-16T09:54:07;27.90;58.20
21353;DHT22;10834;52.268;6.770;2023-07-16T09:56:57;29.30;53.50
21353;DHT22;10834;52.268;6.770;2023-07-16T09:59:47;29.80;52.20
21353;DHT22;10834;52.268;6.770;2023-07-16T10:02:34;28.80;51.10
21353;DHT22;10834;52.268;6.770;2023-07-16T10:05:25;27.60;52.40
21353;DHT22;10834;52.268;6.770;2023-07-16T10:08:19;26.70;54.50
21353;DHT22;10834;52.268;6.770;2023-07-16T10:11:16;25.80;54.80
21353;DHT22;10834;52.268;6.770;2023-07-16T10:14:02;25.00;57.40
21353;DHT22;10834;52.268;6.770;2023-07-16T10:16:48;24.50;59.80
21353;DHT22;10834;52.268;6.770;2023-07-16T10:19:46;24.10;61.40
21353;DHT22;10834;52.268;6.770;2023-07-16T10:22:37;23.90;64.00
21353;DHT22;10834;52.268;6.770;2023-07-16T10:25:27;24.00;64.60
21353;DHT22;10834;52.268;6.770;2023-07-16T10:28:15;24.20;63.50
21353;DHT22;10834;52.268;6.770;2023-07-16T10:31:01;24.80;62.20
21353;DHT22;10834;52.268;6.770;2023-07-16T10:34:04;25.40;65.30
21353;DHT22;10834;52.268;6.770;2023-07-16T10:36:50;26.00;60.50
21353;DHT22;10834;52.268;6.770;2023-07-16T10:39:51;25.90;60.70
21353;DHT22;10834;52.268;6.770;2023-07-16T10:42:39;25.90;61.30
21353;DHT22;10834;52.268;6.770;2023-07-16T10:45:26;25.40;60.50
21353;DHT22;10834;52.268;6.770;2023-07-16T10:48:14;24.90;62.60
21353;DHT22;10834;52.268;6.770;2023-07-16T10:51:01;24.40;65.00
21353;DHT22;10834;52.268;6.770;2023-07-16T10:53:46;24.00;67.40
21353;DHT22;10834;52.268;6.770;2023-07-16T10:56:36;23.60;66.40
21353;DHT22;10834;52.268;6.770;2023-07-16T10:59:25;23.20;69.30
21353;DHT22;10834;52.268;6.770;2023-07-16T11:02:13;23.00;72.50
21353;DHT22;10834;52.268;6.770;2023-07-16T11:04:59;23.00;76.30
21353;DHT22;10834;52.268;6.770;2023-07-16T11:07:48;23.30;78.00
21353;DHT22;10834;52.268;6.770;2023-07-16T11:10:35;23.70;75.80
21353;DHT22;10834;52.268;6.770;2023-07-16T11:13:28;24.00;73.70
21353;DHT22;10834;52.268;6.770;2023-07-16T11:16:15;24.30;72.30
21353;DHT22;10834;52.268;6.770;2023-07-16T11:19:05;24.40;70.90
21353;DHT22;10834;52.268;6.770;2023-07-16T11:21:52;24.60;70.40
21353;DHT22;10834;52.268;6.770;2023-07-16T11:24:46;24.70;72.10
21353;DHT22;10834;52.268;6.770;2023-07-16T11:27:32;24.60;71.00
21353;DHT22;10834;52.268;6.770;2023-07-16T11:30:23;24.60;71.50
21353;DHT22;10834;52.268;6.770;2023-07-16T11:33:12;24.50;69.70
21353;DHT22;10834;52.268;6.770;2023-07-16T11:35:58;24.60;70.00
21353;DHT22;10834;52.268;6.770;2023-07-16T11:38:44;24.50;69.20
21353;DHT22;10834;52.268;6.770;2023-07-16T11:41:30;24.40;70.10
21353;DHT22;10834;52.268;6.770;2023-07-16T11:44:19;24.40;71.90
21353;DHT22;10834;52.268;6.770;2023-07-16T11:47:05;24.30;67.50
21353;DHT22;10834;52.268;6.770;2023-07-16T11:49:51;24.20;68.60
21353;DHT22;10834;52.268;6.770;2023-07-16T11:52:38;24.30;70.20
21353;DHT22;10834;52.268;6.770;2023-07-16T11:55:25;24.40;69.90
21353;DHT22;10834;52.268;6.770;2023-07-16T11:58:11;24.30;69.40
21353;DHT22;10834;52.268;6.770;2023-07-16T12:00:57;24.10;68.90
21353;DHT22;10834;52.268;6.770;2023-07-16T12:03:43;23.90;68.80
21353;DHT22;10834;52.268;6.770;2023-07-16T12:06:29;23.90;69.80
21353;DHT22;10834;52.268;6.770;2023-07-16T12:09:15;24.00;71.80
21353;DHT22;10834;52.268;6.770;2023-07-16T12:12:01;24.20;70.90
21353;DHT22;10834;52.268;6.770;2023-07-16T12:14:48;24.30;69.40
21353;DHT22;10834;52.268;6.770;2023-07-16T12:17:34;24.30;70.40
21353;DHT22;10834;52.268;6.770;2023-07-16T12:20:20;24.20;68.10
21353;DHT22;10834;52.268;6.770;2023-07-16T12:23:06;24.00;69.40
21353;DHT22;10834;52.268;6.770;2023-07-16T12:25:52;23.80;69.50
21353;DHT22;10834;52.268;6.770;2023-07-16T12:28:38;23.70;70.60
21353;DHT22;10834;52.268;6.770;2023-07-16T12:31:24;23.70;72.80
21353;DHT22;10834;52.268;6.770;2023-07-16T12:34:10;23.80;71.90
21353;DHT22;10834;52.268;6.770;2023-07-16T12:36:57;23.70;68.30
21353;DHT22;10834;52.268;6.770;2023-07-16T12:39:43;23.50;70.50
21353;DHT22;10834;52.268;6.770;2023-07-16T12:42:29;23.40;72.40
21353;DHT22;10834;52.268;6.770;2023-07-16T12:45:15;23.30;73.40
21353;DHT22;10834;52.268;6.770;2023-07-16T12:48:01;23.30;72.40
21353;DHT22;10834;52.268;6.770;2023-07-16T12:50:47;23.30;72.80
21353;DHT22;10834;52.268;6.770;2023-07-16T12:53:33;23.40;75.00
21353;DHT22;10834;52.268;6.770;2023-07-16T12:56:19;23.70;75.80
21353;DHT22;10834;52.268;6.770;2023-07-16T12:59:05;23.90;72.60
21353;DHT22;10834;52.268;6.770;2023-07-16T13:01:51;23.90;75.20
21353;DHT22;10834;52.268;6.770;2023-07-16T13:04:37;23.90;73.80
21353;DHT22;10834;52.268;6.770;2023-07-16T13:07:24;23.80;73.10
21353;DHT22;10834;52.268;6.770;2023-07-16T13:10:10;23.70;74.40
21353;DHT22;10834;52.268;6.770;2023-07-16T13:12:56;23.50;74.50
21353;DHT22;10834;52.268;6.770;2023-07-16T13:15:43;23.50;76.90
21353;DHT22;10834;52.268;6.770;2023-07-16T13:18:29;23.70;78.50
21353;DHT22;10834;52.268;6.770;2023-07-16T13:21:15;24.10;79.80
21353;DHT22;10834;52.268;6.770;2023-07-16T13:24:01;24.20;82.00
21353;DHT22;10834;52.268;6.770;2023-07-16T13:26:47;24.30;79.20
21353;DHT22;10834;52.268;6.770;2023-07-16T13:29:33;24.30;75.70
21353;DHT22;10834;52.268;6.770;2023-07-16T13:32:19;24.20;74.70
21353;DHT22;10834;52.268;6.770;2023-07-16T13:35:05;24.30;77.10
21353;DHT22;10834;52.268;6.770;2023-07-16T13:37:51;24.40;75.50
21353;DHT22;10834;52.268;6.770;2023-07-16T13:40:37;24.60;76.10
21353;DHT22;10834;52.268;6.770;2023-07-16T13:43:23;24.90;74.70
21353;DHT22;10834;52.268;6.770;2023-07-16T13:46:09;25.00;75.20
21353;DHT22;10834;52.268;6.770;2023-07-16T13:48:55;25.20;73.00
21353;DHT22;10834;52.268;6.770;2023-07-16T13:51:42;25.30;71.70
21353;DHT22;10834;52.268;6.770;2023-07-16T13:54:29;25.40;72.50
21353;DHT22;10834;52.268;6.770;2023-07-16T13:57:15;25.20;71.40
21353;DHT22;10834;52.268;6.770;2023-07-16T14:00:01;25.00;72.00
21353;DHT22;10834;52.268;6.770;2023-07-16T14:02:47;24.80;72.10
21353;DHT22;10834;52.268;6.770;2023-07-16T14:05:33;24.50;74.40
21353;DHT22;10834;52.268;6.770;2023-07-16T14:08:24;24.40;74.80
21353;DHT22;10834;52.268;6.770;2023-07-16T14:11:10;24.30;74.20
21353;DHT22;10834;52.268;6.770;2023-07-16T14:13:56;24.30;76.00
21353;DHT22;10834;52.268;6.770;2023-07-16T14:16:42;24.60;75.80
21353;DHT22;10834;52.268;6.770;2023-07-16T14:19:29;24.70;75.30
21353;DHT22;10834;52.268;6.770;2023-07-16T14:22:16;24.70;74.00
21353;DHT22;10834;52.268;6.770;2023-07-16T14:25:02;24.70;74.20
21353;DHT22;10834;52.268;6.770;2023-07-16T14:27:48;24.60;73.20
21353;DHT22;10834;52.268;6.770;2023-07-16T14:30:34;24.50;70.80
21353;DHT22;10834;52.268;6.770;2023-07-16T14:33:21;24.40;71.80
21353;DHT22;10834;52.268;6.770;2023-07-16T14:36:07;24.40;73.20
21353;DHT22;10834;52.268;6.770;2023-07-16T14:38:53;24.40;74.00
21353;DHT22;10834;52.268;6.770;2023-07-16T14:41:39;24.40;75.50
21353;DHT22;10834;52.268;6.770;2023-07-16T14:44:25;24.20;73.10
21353;DHT22;10834;52.268;6.770;2023-07-16T14:47:11;24.10;75.50
21353;DHT22;10834;52.268;6.770;2023-07-16T14:49:57;24.10;74.50
21353;DHT22;10834;52.268;6.770;2023-07-16T14:52:43;24.00;75.00
21353;DHT22;10834;52.268;6.770;2023-07-16T14:55:29;23.90;77.00
21353;DHT22;10834;52.268;6.770;2023-07-16T14:58:18;24.00;79.50
21353;DHT22;10834;52.268;6.770;2023-07-16T15:01:04;24.10;76.40
21353;DHT22;10834;52.268;6.770;2023-07-16T15:03:53;24.20;76.30
21353;DHT22;10834;52.268;6.770;2023-07-16T15:06:39;24.30;75.30
21353;DHT22;10834;52.268;6.770;2023-07-16T15:09:25;24.40;76.20
21353;DHT22;10834;52.268;6.770;2023-07-16T15:12:11;24.50;75.50
21353;DHT22;10834;52.268;6.770;2023-07-16T15:14:57;24.50;74.50
21353;DHT22;10834;52.268;6.770;2023-07-16T15:17:43;24.60;75.00
21353;DHT22;10834;52.268;6.770;2023-07-16T15:20:29;24.40;75.00
21353;DHT22;10834;52.268;6.770;2023-07-16T15:23:16;24.20;76.30
21353;DHT22;10834;52.268;6.770;2023-07-16T15:26:04;24.20;76.90
21353;DHT22;10834;52.268;6.770;2023-07-16T15:28:51;24.10;74.90
21353;DHT22;10834;52.268;6.770;2023-07-16T15:31:37;24.00;77.00
21353;DHT22;10834;52.268;6.770;2023-07-16T15:34:23;23.90;77.50
21353;DHT22;10834;52.268;6.770;2023-07-16T15:37:09;23.90;78.00
21353;DHT22;10834;52.268;6.770;2023-07-16T15:39:55;23.90;76.60
21353;DHT22;10834;52.268;6.770;2023-07-16T15:42:43;23.80;77.20
21353;DHT22;10834;52.268;6.770;2023-07-16T15:45:30;23.70;77.30
21353;DHT22;10834;52.268;6.770;2023-07-16T15:48:16;23.60;78.00
21353;DHT22;10834;52.268;6.770;2023-07-16T15:51:03;23.50;81.40
21353;DHT22;10834;52.268;6.770;2023-07-16T15:53:53;23.50;77.70
21353;DHT22;10834;52.268;6.770;2023-07-16T15:56:39;23.40;76.80
21353;DHT22;10834;52.268;6.770;2023-07-16T15:59:25;23.30;77.00
21353;DHT22;10834;52.268;6.770;2023-07-16T16:02:11;23.40;77.90
21353;DHT22;10834;52.268;6.770;2023-07-16T16:04:57;23.40;81.10
21353;DHT22;10834;52.268;6.770;2023-07-16T16:08:10;23.40;80.30
21353;DHT22;10834;52.268;6.770;2023-07-16T16:10:56;23.40;78.60
21353;DHT22;10834;52.268;6.770;2023-07-16T16:13:42;23.30;78.30
21353;DHT22;10834;52.268;6.770;2023-07-16T16:16:29;23.30;79.10
21353;DHT22;10834;52.268;6.770;2023-07-16T16:19:19;23.20;79.60
21353;DHT22;10834;52.268;6.770;2023-07-16T16:22:05;23.10;80.00
21353;DHT22;10834;52.268;6.770;2023-07-16T16:24:51;23.10;81.40
21353;DHT22;10834;52.268;6.770;2023-07-16T16:27:37;23.10;80.60
21353;DHT22;10834;52.268;6.770;2023-07-16T16:30:24;23.10;79.50
21353;DHT22;10834;52.268;6.770;2023-07-16T16:33:10;23.10;79.00
21353;DHT22;10834;52.268;6.770;2023-07-16T16:35:56;23.10;79.40
21353;DHT22;10834;52.268;6.770;2023-07-16T16:38:43;23.00;79.30
21353;DHT22;10834;52.268;6.770;2023-07-16T16:41:29;22.90;79.00
21353;DHT22;10834;52.268;6.770;2023-07-16T16:44:15;22.80;78.40
21353;DHT22;10834;52.268;6.770;2023-07-16T16:47:01;22.70;79.50
21353;DHT22;10834;52.268;6.770;2023-07-16T16:49:47;22.50;78.90
21353;DHT22;10834;52.268;6.770;2023-07-16T16:52:33;22.50;79.90
21353;DHT22;10834;52.268;6.770;2023-07-16T16:55:19;22.40;80.80
21353;DHT22;10834;52.268;6.770;2023-07-16T16:58:05;22.30;81.40
21353;DHT22;10834;52.268;6.770;2023-07-16T17:00:53;22.20;82.80
21353;DHT22;10834;52.268;6.770;2023-07-16T17:03:41;22.20;84.00
21353;DHT22;10834;52.268;6.770;2023-07-16T17:06:27;22.10;84.40
21353;DHT22;10834;52.268;6.770;2023-07-16T17:09:13;22.10;86.60
21353;DHT22;10834;52.268;6.770;2023-07-16T17:12:00;22.10;85.90
21353;DHT22;10834;52.268;6.770;2023-07-16T17:14:46;22.10;84.50
21353;DHT22;10834;52.268;6.770;2023-07-16T17:17:32;22.10;83.20
21353;DHT22;10834;52.268;6.770;2023-07-16T17:20:18;22.10;85.60
21353;DHT22;10834;52.268;6.770;2023-07-16T17:23:05;22.10;84.40
21353;DHT22;10834;52.268;6.770;2023-07-16T17:25:51;22.10;88.40
21353;DHT22;10834;52.268;6.770;2023-07-16T17:28:37;22.20;90.20
21353;DHT22;10834;52.268;6.770;2023-07-16T17:31:23;22.20;90.50
21353;DHT22;10834;52.268;6.770;2023-07-16T17:34:09;22.20;90.30
21353;DHT22;10834;52.268;6.770;2023-07-16T17:36:55;22.10;92.50